Time;durP1;ratioP1;P1;durP2;ratioP2;P2;SDS_P1;SDS_P2;PMS_P1;PMS_P2;Temp;Humidity;BMP_temperature;BMP_pressure;BME280_temperature;BME280_humidity;BME280_pressure;Samples;Min_cycle;Max_cycle;Signal;HPM_P1;HPM_P2
2023/03/31 00:01:40;;;;;;;7.45;2.55;;;14.20;98.10;;;;;;4972668;28;20037;-72
2023/03/31 00:04:11;;;;;;;6.00;2.67;;;14.20;97.80;;;;;;4972377;28;20037;-73
2023/03/31 00:06:40;;;;;;;6.53;3.03;;;14.20;97.90;;;;;;4972400;28;20037;-74
2023/03/31 00:09:14;;;;;;;7.88;3.30;;;14.20;97.90;;;;;;4972183;28;20113;-72
2023/03/31 00:11:40;;;;;;;5.85;2.75;;;14.20;97.80;;;;;;4976178;28;20040;-73
2023/03/31 00:14:07;;;;;;;5.72;2.38;;;14.20;97.80;;;;;;4975757;28;20027;-73
2023/03/31 00:16:35;;;;;;;4.75;2.13;;;14.20;97.50;;;;;;4976153;28;20038;-72
2023/03/31 00:19:01;;;;;;;5.70;2.45;;;14.20;97.60;;;;;;4975689;28;20114;-71
2023/03/31 00:21:36;;;;;;;9.15;3.08;;;14.20;97.50;;;;;;4975950;28;20132;-70
2023/03/31 00:24:05;;;;;;;7.45;3.75;;;14.20;97.50;;;;;;4976021;28;20404;-74
2023/03/31 00:26:32;;;;;;;10.88;3.92;;;14.20;97.70;;;;;;4975603;28;20027;-73
2023/03/31 00:28:59;;;;;;;8.70;3.72;;;14.20;97.80;;;;;;4958303;28;20502;-72
2023/03/31 00:31:26;;;;;;;7.55;2.65;;;14.20;98.00;;;;;;4958179;28;20048;-73
2023/03/31 00:33:53;;;;;;;6.30;3.45;;;14.20;98.00;;;;;;4962839;28;20029;-74
2023/03/31 00:36:20;;;;;;;5.13;2.58;;;14.20;98.60;;;;;;4975244;28;20062;-74
2023/03/31 00:38:47;;;;;;;7.93;3.05;;;14.10;99.10;;;;;;4974930;28;20058;-71
2023/03/31 00:41:14;;;;;;;3.88;2.53;;;14.00;99.40;;;;;;4957674;28;20057;-72
2023/03/31 00:43:41;;;;;;;8.93;3.13;;;14.10;99.20;;;;;;4975329;28;20049;-73
2023/03/31 00:46:14;;;;;;;5.88;2.45;;;14.00;99.00;;;;;;4971993;28;20027;-72
2023/03/31 00:48:56;;;;;;;6.80;2.60;;;14.10;98.90;;;;;;4966387;28;20027;-72
2023/03/31 00:51:25;;;;;;;6.25;3.00;;;14.00;99.30;;;;;;4973501;28;20398;-72
2023/03/31 00:53:59;;;;;;;8.32;2.78;;;14.00;99.10;;;;;;4969293;28;20078;-74
2023/03/31 00:56:29;;;;;;;7.20;2.80;;;14.10;99.40;;;;;;4956839;28;20125;-73
2023/03/31 00:59:01;;;;;;;7.68;2.63;;;14.00;99.00;;;;;;4973486;28;20510;-72
2023/03/31 01:01:29;;;;;;;5.57;2.80;;;14.10;97.50;;;;;;4957496;28;20081;-72
2023/03/31 01:03:56;;;;;;;7.30;2.60;;;14.10;97.30;;;;;;4975004;28;20034;-69
2023/03/31 01:06:24;;;;;;;5.57;2.90;;;14.10;97.20;;;;;;4974444;28;20118;-71
2023/03/31 01:08:51;;;;;;;6.95;2.55;;;14.20;96.60;;;;;;4974561;28;20027;-71
2023/03/31 01:11:19;;;;;;;7.22;2.60;;;14.20;96.00;;;;;;4974703;28;20038;-70
2023/03/31 01:13:49;;;;;;;6.50;1.95;;;14.30;95.50;;;;;;4974623;28;20110;-71
2023/03/31 01:16:17;;;;;;;5.15;2.00;;;14.30;95.60;;;;;;4974865;28;20023;-73
2023/03/31 01:18:48;;;;;;;5.45;2.30;;;14.30;95.00;;;;;;4956316;28;20058;-72
2023/03/31 01:21:32;;;;;;;5.40;2.20;;;14.40;94.50;;;;;;4968378;28;20117;-73
2023/03/31 01:24:12;;;;;;;6.22;2.30;;;14.50;94.00;;;;;;4974820;28;20030;-74
2023/03/31 01:27:00;;;;;;;4.75;2.35;;;14.50;93.70;;;;;;4973207;28;20523;-72
2023/03/31 01:29:45;;;;;;;5.80;2.20;;;14.50;93.50;;;;;;4974252;28;20034;-72
2023/03/31 01:32:39;;;;;;;4.55;2.05;;;14.50;93.40;;;;;;4973325;28;20031;-72
2023/03/31 01:35:26;;;;;;;4.20;2.17;;;14.50;93.40;;;;;;4963401;28;20041;-72
2023/03/31 01:37:55;;;;;;;5.18;1.90;;;14.40;93.00;;;;;;4973228;28;20469;-70
2023/03/31 01:40:26;;;;;;;3.55;1.88;;;14.40;93.10;;;;;;4969201;28;20108;-73
2023/03/31 01:43:20;;;;;;;8.50;2.00;;;14.50;92.50;;;;;;4974085;28;20553;-72
2023/03/31 01:46:05;;;;;;;5.05;1.90;;;14.60;92.10;;;;;;4969806;28;20038;-72
2023/03/31 01:48:45;;;;;;;7.47;2.17;;;14.60;92.30;;;;;;4974265;28;20035;-74
2023/03/31 01:51:30;;;;;;;4.65;1.42;;;14.50;92.10;;;;;;4972811;28;20041;-73
2023/03/31 01:54:38;;;;;;;4.63;1.40;;;14.50;91.80;;;;;;4972644;28;20041;-71
2023/03/31 01:57:34;;;;;;;3.40;1.70;;;14.70;90.90;;;;;;4971977;28;20127;-73
2023/03/31 02:00:08;;;;;;;5.03;1.77;;;14.60;91.60;;;;;;4914646;29;20044;-73
2023/03/31 02:03:07;;;;;;;4.05;1.65;;;14.50;91.70;;;;;;4914292;29;20044;-73
2023/03/31 02:05:40;;;;;;;4.53;1.63;;;14.50;91.70;;;;;;4839404;29;20071;-70
2023/03/31 02:08:25;;;;;;;10.30;1.95;;;14.50;91.90;;;;;;4837602;29;20049;-71
2023/03/31 02:10:52;;;;;;;4.78;2.03;;;14.60;91.40;;;;;;4853908;29;20065;-72
2023/03/31 02:13:21;;;;;;;3.60;1.60;;;14.50;91.50;;;;;;4854710;29;20041;-73
2023/03/31 02:15:52;;;;;;;6.13;2.15;;;14.50;92.10;;;;;;4855029;29;20041;-72
2023/03/31 02:18:24;;;;;;;5.38;1.67;;;14.50;92.10;;;;;;4839536;29;20128;-71
2023/03/31 02:20:53;;;;;;;5.05;1.65;;;14.50;92.00;;;;;;4839891;29;20422;-72
2023/03/31 02:23:25;;;;;;;5.10;1.88;;;14.40;93.30;;;;;;4839549;29;20418;-71
2023/03/31 02:25:56;;;;;;;4.35;1.90;;;14.20;94.60;;;;;;4839607;29;20041;-71
2023/03/31 02:28:25;;;;;;;5.95;2.67;;;14.10;95.80;;;;;;4839569;29;20029;-72
2023/03/31 02:31:14;;;;;;;8.65;3.60;;;14.00;96.30;;;;;;4838747;29;20053;-71
2023/03/31 02:33:40;;;;;;;5.30;2.38;;;14.00;96.30;;;;;;4850703;29;20550;-72
2023/03/31 02:36:07;;;;;;;7.07;2.05;;;14.00;97.00;;;;;;4831285;29;20065;-71
2023/03/31 02:38:38;;;;;;;4.32;1.90;;;13.90;97.40;;;;;;4879539;29;20044;-73
2023/03/31 02:41:06;;;;;;;5.40;1.80;;;13.90;97.10;;;;;;4910572;29;20033;-70
2023/03/31 02:43:32;;;;;;;4.38;2.05;;;13.90;97.40;;;;;;4966687;28;20141;-73
2023/03/31 02:45:58;;;;;;;4.28;1.73;;;13.90;97.30;;;;;;4956035;28;20062;-72
2023/03/31 02:48:30;;;;;;;8.00;2.42;;;13.90;97.40;;;;;;4973098;28;20058;-73
2023/03/31 02:51:10;;;;;;;5.80;2.13;;;14.00;96.80;;;;;;4964887;28;20117;-73
2023/03/31 02:54:26;;;;;;;3.25;1.88;;;14.00;96.90;;;;;;4957527;28;20023;-71
2023/03/31 02:57:31;;;;;;;3.63;1.90;;;14.00;96.40;;;;;;4913510;29;20068;-72
2023/03/31 03:00:18;;;;;;;7.22;3.38;;;14.00;96.60;;;;;;4910336;29;20390;-72
2023/03/31 03:03:14;;;;;;;3.80;2.28;;;14.00;96.20;;;;;;4877276;29;20052;-72
2023/03/31 03:05:49;;;;;;;4.97;2.50;;;14.00;96.10;;;;;;4894687;29;20046;-70
2023/03/31 03:09:15;;;;;;;4.53;2.30;;;14.00;95.50;;;;;;4893393;29;20047;-74
2023/03/31 03:12:06;;;;;;;3.58;1.85;;;14.00;95.40;;;;;;4802143;29;20092;-73
2023/03/31 03:14:47;;;;;;;5.78;2.20;;;14.00;95.50;;;;;;4802574;29;20039;-73
2023/03/31 03:17:39;;;;;;;4.03;1.45;;;14.00;95.50;;;;;;4802584;29;20420;-73
2023/03/31 03:20:08;;;;;;;3.77;1.70;;;14.00;95.00;;;;;;4784340;29;20043;-71
2023/03/31 03:22:35;;;;;;;4.20;1.70;;;14.00;94.80;;;;;;4784698;30;20122;-72
2023/03/31 03:25:01;;;;;;;9.25;1.92;;;14.00;94.80;;;;;;4784608;30;20591;-74
2023/03/31 03:27:27;;;;;;;3.40;1.95;;;14.00;94.20;;;;;;4784477;29;20039;-71
2023/03/31 03:29:53;;;;;;;5.03;2.40;;;14.00;94.40;;;;;;4784450;30;20138;-74
2023/03/31 03:32:19;;;;;;;5.97;2.42;;;14.00;94.20;;;;;;4789761;29;20122;-74
2023/03/31 03:34:45;;;;;;;6.15;2.40;;;14.00;94.10;;;;;;4838860;29;20427;-74
2023/03/31 03:37:10;;;;;;;4.35;1.85;;;14.00;94.20;;;;;;4838676;29;20129;-74
2023/03/31 03:39:36;;;;;;;3.95;1.70;;;14.00;94.20;;;;;;4838693;29;20038;-73
2023/03/31 03:42:02;;;;;;;5.68;2.08;;;14.00;94.00;;;;;;4865574;29;20120;-74
2023/03/31 03:44:28;;;;;;;10.45;3.05;;;14.00;93.80;;;;;;4913533;28;20483;-73
2023/03/31 03:46:54;;;;;;;5.55;2.78;;;14.00;93.40;;;;;;4916676;29;20078;-74
2023/03/31 03:49:20;;;;;;;8.15;2.90;;;14.00;93.40;;;;;;4916658;29;20366;-73
2023/03/31 03:51:46;;;;;;;7.18;2.47;;;14.00;93.20;;;;;;4916985;29;20052;-73
2023/03/31 03:54:12;;;;;;;4.85;1.75;;;14.00;93.20;;;;;;4916550;29;20032;-74
2023/03/31 03:56:37;;;;;;;4.72;2.35;;;14.00;93.10;;;;;;4935518;28;20462;-74
2023/03/31 03:59:03;;;;;;;5.50;2.40;;;14.00;93.20;;;;;;4975926;28;20057;-74
2023/03/31 04:01:29;;;;;;;4.65;2.35;;;13.90;93.30;;;;;;4975323;28;20030;-71
2023/03/31 04:03:55;;;;;;;9.27;3.58;;;13.90;93.50;;;;;;4975871;28;20035;-73
2023/03/31 04:06:21;;;;;;;5.97;2.30;;;13.90;93.50;;;;;;4976376;28;20110;-74
2023/03/31 04:08:46;;;;;;;9.60;3.53;;;13.90;93.60;;;;;;4975557;28;20031;-72
2023/03/31 04:11:16;;;;;;;7.82;3.58;;;13.90;93.90;;;;;;4976003;28;20054;-71
2023/03/31 04:13:43;;;;;;;6.45;3.60;;;13.80;93.70;;;;;;4975593;28;20446;-72
2023/03/31 04:16:09;;;;;;;15.10;6.50;;;13.80;93.80;;;;;;4975003;28;20023;-73
2023/03/31 04:18:41;;;;;;;16.65;9.00;;;13.80;94.10;;;;;;4970357;28;20105;-73
2023/03/31 04:21:11;;;;;;;17.63;8.68;;;13.80;94.00;;;;;;4972096;28;20039;-71
2023/03/31 04:23:47;;;;;;;48.35;32.70;;;13.80;94.20;;;;;;4974411;28;20403;-73
2023/03/31 04:26:16;;;;;;;33.15;23.17;;;13.70;94.30;;;;;;4971382;28;20023;-72
2023/03/31 04:28:45;;;;;;;21.88;13.73;;;13.70;94.70;;;;;;4969899;28;20118;-71
2023/03/31 04:31:23;;;;;;;31.20;17.52;;;13.70;94.80;;;;;;4964664;28;20533;-72
2023/03/31 04:33:53;;;;;;;40.38;28.58;;;13.60;94.90;;;;;;4966498;28;20501;-73
2023/03/31 04:36:20;;;;;;;44.78;26.33;;;13.60;95.30;;;;;;4974026;28;20027;-72
2023/03/31 04:38:49;;;;;;;61.17;36.17;;;13.60;95.40;;;;;;4969590;28;20089;-73
2023/03/31 04:41:16;;;;;;;76.57;46.95;;;13.50;95.70;;;;;;4974517;28;20050;-73
2023/03/31 04:43:42;;;;;;;35.83;22.17;;;13.50;96.10;;;;;;4975341;28;20458;-73
2023/03/31 04:46:09;;;;;;;24.55;14.25;;;13.50;96.40;;;;;;4973541;28;20086;-72
2023/03/31 04:48:35;;;;;;;19.88;10.45;;;13.40;96.60;;;;;;4972394;28;20039;-73
2023/03/31 04:51:01;;;;;;;17.92;8.27;;;13.40;96.80;;;;;;4974993;28;20047;-72
2023/03/31 04:53:28;;;;;;;14.20;6.60;;;13.40;97.10;;;;;;4975079;28;20034;-72
2023/03/31 04:55:54;;;;;;;12.05;5.85;;;13.40;97.10;;;;;;4974792;28;20031;-73
2023/03/31 04:58:20;;;;;;;10.15;5.32;;;13.30;97.30;;;;;;4967395;28;20031;-73
2023/03/31 05:00:45;;;;;;;13.35;6.03;;;13.40;97.80;;;;;;4974853;28;20023;-72
2023/03/31 05:03:11;;;;;;;12.05;6.03;;;13.40;98.00;;;;;;4974983;28;20101;-71
2023/03/31 05:05:37;;;;;;;16.25;7.57;;;13.40;97.90;;;;;;4975556;28;20467;-72
2023/03/31 05:08:03;;;;;;;27.85;8.95;;;13.40;97.80;;;;;;4975133;28;20026;-73
2023/03/31 05:10:30;;;;;;;15.90;6.75;;;13.40;97.70;;;;;;4974869;28;20050;-71
2023/03/31 05:12:56;;;;;;;16.52;6.95;;;13.40;98.00;;;;;;4973350;28;20023;-73
2023/03/31 05:15:23;;;;;;;22.90;9.68;;;13.30;98.30;;;;;;4970839;28;20027;-73
2023/03/31 05:17:49;;;;;;;19.88;9.82;;;13.30;98.40;;;;;;4974758;28;20019;-72
2023/03/31 05:20:15;;;;;;;24.02;11.60;;;13.20;98.30;;;;;;4970569;28;20041;-73
2023/03/31 05:22:41;;;;;;;22.92;13.57;;;13.20;98.30;;;;;;4969348;28;20066;-72
2023/03/31 05:25:13;;;;;;;24.30;12.25;;;13.20;98.40;;;;;;4973313;28;20042;-73
2023/03/31 05:27:39;;;;;;;22.40;12.70;;;13.30;98.30;;;;;;4967460;28;20070;-73
2023/03/31 05:30:07;;;;;;;25.60;13.60;;;13.30;98.50;;;;;;4958572;28;20031;-73
2023/03/31 05:32:33;;;;;;;22.55;12.98;;;13.40;98.00;;;;;;4967857;28;20037;-71
2023/03/31 05:34:58;;;;;;;19.75;12.68;;;13.40;98.00;;;;;;4963520;28;20110;-72
2023/03/31 05:37:25;;;;;;;25.85;13.65;;;13.50;98.20;;;;;;4974565;28;20085;-73
2023/03/31 05:39:51;;;;;;;29.23;13.55;;;14.00;98.70;;;;;;4972508;28;20469;-71
2023/03/31 05:42:17;;;;;;;27.25;14.00;;;14.10;97.70;;;;;;4974390;28;20403;-71
2023/03/31 05:44:43;;;;;;;28.73;15.93;;;14.40;97.30;;;;;;4974307;28;20031;-72
2023/03/31 05:47:09;;;;;;;30.30;15.88;;;14.70;97.30;;;;;;4974467;28;20098;-73
2023/03/31 05:49:35;;;;;;;26.77;14.50;;;15.00;96.20;;;;;;4974266;28;20173;-73
2023/03/31 05:52:01;;;;;;;21.48;12.70;;;15.30;95.80;;;;;;4974040;28;20475;-73
2023/03/31 05:54:27;;;;;;;24.45;11.48;;;15.50;95.00;;;;;;4974138;28;20030;-71
2023/03/31 05:56:52;;;;;;;22.77;10.25;;;15.60;94.00;;;;;;4974290;28;20067;-73
2023/03/31 05:59:18;;;;;;;21.90;12.20;;;15.70;93.40;;;;;;4974058;28;20027;-72
2023/03/31 06:01:46;;;;;;;18.02;10.30;;;15.90;93.30;;;;;;4973996;28;20035;-73
2023/03/31 06:04:11;;;;;;;24.02;12.10;;;16.20;92.90;;;;;;4973979;28;20019;-73
2023/03/31 06:06:37;;;;;;;31.35;14.00;;;16.30;92.10;;;;;;4973784;28;20130;-73
2023/03/31 06:09:04;;;;;;;32.03;13.13;;;16.50;92.00;;;;;;4970487;28;20034;-72
2023/03/31 06:11:30;;;;;;;27.50;11.85;;;16.40;92.00;;;;;;4973740;28;20585;-72
2023/03/31 06:13:56;;;;;;;41.63;12.63;;;16.40;91.00;;;;;;4971716;28;20035;-73
2023/03/31 06:16:23;;;;;;;21.77;11.82;;;16.30;91.00;;;;;;4970627;28;20080;-72
2023/03/31 06:18:52;;;;;;;21.70;12.40;;;16.30;90.80;;;;;;4972385;28;20467;-72
2023/03/31 06:21:19;;;;;;;19.13;10.85;;;16.50;90.80;;;;;;4970276;28;20034;-73
2023/03/31 06:23:45;;;;;;;19.30;10.43;;;16.50;90.40;;;;;;4972136;28;20030;-71
2023/03/31 06:26:14;;;;;;;16.60;8.10;;;16.60;91.10;;;;;;4970327;28;20035;-72
2023/03/31 06:28:40;;;;;;;17.65;6.53;;;16.70;90.40;;;;;;4971586;28;20027;-73
2023/03/31 06:31:13;;;;;;;14.23;5.75;;;16.90;91.10;;;;;;4970169;28;20042;-73
2023/03/31 06:33:41;;;;;;;9.60;4.00;;;16.80;90.30;;;;;;4967581;28;20019;-73
2023/03/31 06:36:08;;;;;;;7.15;3.55;;;16.90;89.00;;;;;;4972305;28;20044;-72
2023/03/31 06:38:35;;;;;;;11.45;4.10;;;17.00;87.90;;;;;;4963572;28;20038;-72
2023/03/31 06:41:01;;;;;;;9.77;2.90;;;17.10;87.50;;;;;;4964295;28;20110;-72
2023/03/31 06:43:27;;;;;;;4.80;2.83;;;17.20;87.60;;;;;;4972390;28;20089;-71
2023/03/31 06:45:55;;;;;;;8.75;3.10;;;17.20;86.40;;;;;;4971513;28;20505;-72
2023/03/31 06:48:22;;;;;;;6.65;2.80;;;17.50;88.10;;;;;;4961767;28;20030;-71
2023/03/31 06:50:48;;;;;;;8.57;3.35;;;17.70;88.30;;;;;;4982061;28;20081;-72
2023/03/31 06:53:15;;;;;;;8.02;2.67;;;17.70;88.10;;;;;;4970042;28;20035;-73
2023/03/31 06:55:40;;;;;;;4.35;2.13;;;17.90;87.00;;;;;;4971824;28;20031;-72
2023/03/31 06:58:06;;;;;;;4.53;2.20;;;17.80;85.30;;;;;;4962286;28;20034;-73
2023/03/31 07:00:32;;;;;;;6.43;2.42;;;17.90;85.30;;;;;;4972444;28;20081;-72
2023/03/31 07:03:00;;;;;;;8.63;2.63;;;17.90;85.10;;;;;;4970204;28;20455;-73
2023/03/31 07:05:27;;;;;;;4.25;2.15;;;18.10;85.20;;;;;;4970523;28;20054;-73
2023/03/31 07:07:59;;;;;;;7.00;2.70;;;18.30;84.70;;;;;;4965784;28;20031;-73
2023/03/31 07:10:27;;;;;;;6.43;2.38;;;18.40;81.80;;;;;;4963879;28;20103;-72
2023/03/31 07:12:53;;;;;;;2.88;1.80;;;18.50;82.70;;;;;;4967960;28;20108;-73
2023/03/31 07:15:20;;;;;;;5.35;2.22;;;18.70;81.60;;;;;;4973607;28;20105;-73
2023/03/31 07:17:49;;;;;;;5.65;2.63;;;18.50;79.90;;;;;;4972684;28;20023;-73
2023/03/31 07:20:17;;;;;;;4.80;2.25;;;18.30;78.90;;;;;;4963701;28;20030;-72
2023/03/31 07:22:44;;;;;;;5.88;2.45;;;18.40;79.40;;;;;;4972734;28;20027;-71
2023/03/31 07:25:12;;;;;;;7.40;2.08;;;18.40;80.50;;;;;;4970873;28;20031;-72
2023/03/31 07:27:38;;;;;;;8.25;2.95;;;18.40;80.50;;;;;;4963252;28;20022;-72
2023/03/31 07:30:06;;;;;;;8.52;3.05;;;18.40;79.40;;;;;;4966300;28;20050;-72
2023/03/31 07:32:32;;;;;;;14.00;3.25;;;18.50;78.60;;;;;;4966992;28;20019;-72
2023/03/31 07:34:58;;;;;;;8.95;2.83;;;18.70;77.70;;;;;;4976586;28;20038;-72
2023/03/31 07:37:24;;;;;;;5.68;2.70;;;18.80;77.80;;;;;;4970358;28;20015;-72
2023/03/31 07:39:50;;;;;;;6.03;2.03;;;18.90;77.70;;;;;;4976513;28;20115;-72
2023/03/31 07:42:16;;;;;;;8.48;2.75;;;18.60;77.20;;;;;;4976299;28;20178;-72
2023/03/31 07:44:42;;;;;;;7.68;2.30;;;18.50;77.00;;;;;;4976596;28;20034;-73
2023/03/31 07:47:08;;;;;;;7.07;2.63;;;18.70;77.00;;;;;;4976577;28;20352;-71
2023/03/31 07:49:35;;;;;;;8.23;2.85;;;18.70;77.20;;;;;;4976268;28;20046;-73
2023/03/31 07:52:01;;;;;;;5.75;2.50;;;19.10;78.20;;;;;;4976471;28;20439;-73
2023/03/31 07:54:27;;;;;;;5.00;2.28;;;19.20;76.50;;;;;;4976270;28;20027;-73
2023/03/31 07:56:53;;;;;;;7.07;2.10;;;19.20;77.60;;;;;;4976162;28;20486;-72
2023/03/31 07:59:20;;;;;;;6.72;2.10;;;19.20;78.40;;;;;;4976165;28;20026;-72
2023/03/31 08:01:46;;;;;;;5.90;2.10;;;19.00;76.40;;;;;;4976409;28;20026;-72
2023/03/31 08:04:12;;;;;;;6.20;2.30;;;18.90;75.60;;;;;;4969058;28;20118;-73
2023/03/31 08:06:38;;;;;;;6.35;2.33;;;18.80;75.70;;;;;;4968362;28;20467;-72
2023/03/31 08:09:06;;;;;;;6.63;2.40;;;18.90;78.00;;;;;;4972074;28;20510;-72
2023/03/31 08:11:32;;;;;;;8.77;3.05;;;19.00;76.90;;;;;;4975700;28;20109;-73
2023/03/31 08:13:58;;;;;;;7.45;2.33;;;19.10;76.90;;;;;;4972736;28;20034;-72
2023/03/31 08:16:24;;;;;;;6.43;2.55;;;19.30;76.70;;;;;;4974823;28;20058;-73
2023/03/31 08:18:50;;;;;;;2.28;1.90;;;19.40;76.00;;;;;;4972571;28;20031;-72
2023/03/31 08:21:16;;;;;;;6.60;2.17;;;19.40;77.80;;;;;;4967688;28;20502;-72
2023/03/31 08:23:42;;;;;;;6.47;2.42;;;19.40;76.10;;;;;;4958450;28;20093;-72
2023/03/31 08:26:09;;;;;;;10.02;2.75;;;19.60;76.30;;;;;;4974000;28;20031;-72
2023/03/31 08:28:35;;;;;;;4.03;2.10;;;19.80;76.90;;;;;;4966995;28;20439;-72
2023/03/31 08:31:09;;;;;;;6.35;2.40;;;19.80;76.10;;;;;;4970853;28;20077;-71
2023/03/31 08:33:36;;;;;;;5.30;2.00;;;19.70;75.40;;;;;;4971967;28;20061;-72
2023/03/31 08:36:05;;;;;;;4.50;2.25;;;19.70;77.00;;;;;;4962086;28;20042;-72
2023/03/31 08:38:31;;;;;;;8.10;3.05;;;19.80;76.80;;;;;;4969766;28;20390;-70
2023/03/31 08:41:05;;;;;;;6.43;2.78;;;19.90;76.70;;;;;;4973786;28;20089;-70
2023/03/31 08:43:42;;;;;;;4.40;1.73;;;19.90;77.50;;;;;;4973592;28;20050;-70
2023/03/31 08:46:12;;;;;;;4.68;2.17;;;19.90;76.70;;;;;;4966755;28;20055;-72
2023/03/31 08:48:47;;;;;;;6.63;2.30;;;19.80;76.90;;;;;;4963871;28;20102;-72
2023/03/31 08:51:19;;;;;;;3.45;1.98;;;19.80;76.90;;;;;;4973696;28;20039;-72
2023/03/31 08:53:51;;;;;;;;;;;19.80;75.10;;;;;;4967679;28;20035;-71
2023/03/31 08:56:21;;;;;;;5.38;2.00;;;19.70;75.10;;;;;;4969036;28;20325;-72
2023/03/31 08:58:49;;;;;;;3.55;1.88;;;19.70;76.70;;;;;;4975266;28;20027;-70
2023/03/31 09:01:30;;;;;;;7.78;2.17;;;19.70;74.40;;;;;;4974352;28;20084;-72
2023/03/31 09:04:23;;;;;;;4.65;2.00;;;19.60;73.70;;;;;;4975254;28;20097;-71
2023/03/31 09:07:32;;;;;;;7.30;2.00;;;19.70;74.80;;;;;;4971112;28;20031;-71
2023/03/31 09:10:17;;;;;;;3.65;1.65;;;19.90;77.60;;;;;;4966093;28;20038;-72
2023/03/31 09:13:16;;;;;;;5.22;2.40;;;19.70;75.10;;;;;;4968163;28;20450;-72
2023/03/31 09:15:47;;;;;;;5.65;1.70;;;19.50;75.80;;;;;;4970299;28;20031;-71
2023/03/31 09:18:30;;;;;;;4.20;1.92;;;19.10;75.10;;;;;;4959385;28;20455;-69
2023/03/31 09:21:33;;;;;;;5.53;2.33;;;19.30;75.50;;;;;;4971232;28;20030;-71
2023/03/31 09:24:19;;;;;;;6.85;2.20;;;19.50;75.70;;;;;;4948051;28;20034;-71
2023/03/31 09:26:54;;;;;;;8.38;2.80;;;19.40;75.50;;;;;;4974470;28;20058;-70
2023/03/31 09:29:28;;;;;;;6.78;2.55;;;19.40;77.10;;;;;;4965192;28;20026;-71
2023/03/31 09:32:00;;;;;;;7.75;2.40;;;19.60;75.40;;;;;;4972238;28;20038;-71
2023/03/31 09:34:32;;;;;;;8.52;2.30;;;19.50;76.10;;;;;;4973958;28;20034;-71
2023/03/31 09:36:58;;;;;;;;;;;19.60;78.10;;;;;;4971185;28;20053;-71
2023/03/31 09:39:23;;;;;;;4.40;2.38;;;19.70;76.50;;;;;;4965629;28;20424;-72
2023/03/31 09:41:52;;;;;;;5.35;2.10;;;19.70;76.00;;;;;;4971767;28;20511;-71
2023/03/31 09:44:31;;;;;;;7.63;2.50;;;19.60;76.80;;;;;;4968793;28;20031;-71
2023/03/31 09:46:59;;;;;;;9.63;2.85;;;19.90;77.60;;;;;;4966080;28;20054;-70
2023/03/31 09:49:31;;;;;;;8.35;2.70;;;20.10;77.10;;;;;;4974272;28;20030;-70
2023/03/31 09:52:16;;;;;;;8.82;2.65;;;20.00;77.40;;;;;;4965811;28;20047;-71
2023/03/31 09:54:50;;;;;;;14.98;3.38;;;20.30;79.20;;;;;;4973462;28;20070;-71
2023/03/31 09:57:29;;;;;;;66.30;22.30;;;19.90;76.00;;;;;;4974233;28;20110;-71
2023/03/31 10:00:13;;;;;;;16.00;4.80;;;20.00;77.20;;;;;;4973862;28;20031;-70
2023/03/31 10:02:44;;;;;;;38.47;13.60;;;20.20;76.70;;;;;;4972195;28;20089;-70
2023/03/31 10:05:31;;;;;;;15.48;5.57;;;20.00;76.00;;;;;;4972412;28;20018;-70
2023/03/31 10:08:13;;;;;;;7.85;2.47;;;20.30;75.70;;;;;;4973472;28;20046;-70
2023/03/31 10:10:45;;;;;;;15.90;5.07;;;20.50;76.50;;;;;;4972832;28;20499;-71
2023/03/31 10:13:17;;;;;;;41.15;13.70;;;20.60;75.20;;;;;;4973954;28;20026;-71
2023/03/31 10:15:43;;;;;;;29.13;7.90;;;20.40;75.50;;;;;;4977774;28;20387;-70
2023/03/31 10:18:18;;;;;;;13.25;4.25;;;20.10;75.60;;;;;;4962752;28;20027;-70
2023/03/31 10:20:51;;;;;;;10.10;2.38;;;20.00;75.70;;;;;;4962596;28;20111;-71
2023/03/31 10:23:26;;;;;;;6.50;2.80;;;20.10;76.40;;;;;;4970976;28;20114;-70
2023/03/31 10:25:53;;;;;;;7.38;2.17;;;20.20;76.20;;;;;;4969036;28;20495;-71
2023/03/31 10:28:21;;;;;;;14.20;2.90;;;20.20;76.70;;;;;;4964366;28;20027;-71
2023/03/31 10:30:53;;;;;;;7.50;2.60;;;20.40;75.00;;;;;;4972314;28;20066;-70
2023/03/31 10:33:26;;;;;;;7.38;2.65;;;20.20;74.80;;;;;;4971900;28;20617;-70
2023/03/31 10:36:01;;;;;;;8.50;2.50;;;20.30;75.10;;;;;;4969517;28;20093;-71
2023/03/31 10:38:35;;;;;;;8.13;2.22;;;20.20;74.00;;;;;;4969982;28;20391;-70
2023/03/31 10:41:02;;;;;;;12.10;3.63;;;20.00;73.00;;;;;;4967448;28;21067;-71
2023/03/31 10:43:40;;;;;;;7.00;2.15;;;20.30;74.30;;;;;;4969446;28;20457;-70
2023/03/31 10:46:06;;;;;;;26.35;9.45;;;20.20;72.10;;;;;;4971030;28;20109;-70
2023/03/31 10:48:38;;;;;;;4.18;1.75;;;20.30;75.10;;;;;;4968396;28;20026;-70
2023/03/31 10:51:15;;;;;;;4.00;2.05;;;20.10;74.30;;;;;;4980595;28;20053;-70
2023/03/31 10:53:46;;;;;;;5.32;2.17;;;20.10;76.30;;;;;;4966776;28;20378;-69
2023/03/31 10:56:40;;;;;;;8.35;3.13;;;20.10;71.80;;;;;;4972082;28;20023;-72
2023/03/31 10:59:28;;;;;;;7.07;2.67;;;20.20;77.50;;;;;;4967550;28;20027;-70
2023/03/31 11:02:00;;;;;;;8.77;2.72;;;20.40;73.90;;;;;;4970353;28;20031;-70
2023/03/31 11:04:55;;;;;;;5.72;1.48;;;20.50;73.20;;;;;;4972376;28;20023;-70
2023/03/31 11:07:58;;;;;;;6.63;2.30;;;20.30;73.50;;;;;;4973221;28;20023;-70
2023/03/31 11:10:49;;;;;;;5.03;2.00;;;20.30;73.90;;;;;;4962408;28;20462;-70
2023/03/31 11:13:34;;;;;;;9.38;2.72;;;20.10;73.10;;;;;;4973280;28;20042;-71
2023/03/31 11:16:02;;;;;;;7.68;2.53;;;20.20;73.40;;;;;;4973162;28;20027;-72
2023/03/31 11:19:04;;;;;;;7.70;2.40;;;20.10;72.30;;;;;;4972931;28;20390;-70
2023/03/31 11:21:42;;;;;;;3.22;2.30;;;20.30;71.10;;;;;;4961022;28;20042;-71
2023/03/31 11:24:32;;;;;;;6.72;2.35;;;20.40;74.60;;;;;;4978594;28;20045;-71
2023/03/31 11:27:06;;;;;;;9.18;2.58;;;20.70;72.40;;;;;;4975111;28;20031;-70
2023/03/31 11:29:48;;;;;;;3.92;1.92;;;20.60;71.70;;;;;;4960244;28;20031;-71
2023/03/31 11:32:35;;;;;;;5.18;2.10;;;20.70;72.40;;;;;;4973136;28;20050;-71
2023/03/31 11:35:34;;;;;;;4.60;2.00;;;20.80;73.90;;;;;;4976500;28;20543;-70
2023/03/31 11:38:38;;;;;;;7.85;2.83;;;20.80;72.40;;;;;;4961778;28;20481;-71
2023/03/31 11:41:10;;;;;;;5.05;2.30;;;20.90;74.10;;;;;;4913313;29;20055;-71
2023/03/31 11:43:42;;;;;;;6.13;2.25;;;21.00;71.80;;;;;;4913005;29;20088;-71
2023/03/31 11:46:14;;;;;;;8.93;2.63;;;20.90;73.10;;;;;;4912997;29;20130;-71
2023/03/31 11:49:00;;;;;;;8.60;3.17;;;21.20;75.10;;;;;;4913375;29;20044;-71
2023/03/31 11:52:00;;;;;;;7.30;2.70;;;21.00;71.30;;;;;;4912381;28;20099;-71
2023/03/31 11:54:28;;;;;;;5.70;2.17;;;20.90;72.40;;;;;;4913158;29;20043;-71
2023/03/31 11:56:55;;;;;;;8.45;2.20;;;20.90;71.20;;;;;;4912024;29;20099;-70
2023/03/31 11:59:26;;;;;;;7.78;2.70;;;21.10;73.60;;;;;;4912849;29;20613;-70
2023/03/31 12:02:14;;;;;;;7.45;2.40;;;20.90;72.30;;;;;;4913368;29;20520;-70
2023/03/31 12:04:44;;;;;;;5.97;2.30;;;21.00;72.40;;;;;;4908105;29;20048;-69
2023/03/31 12:07:28;;;;;;;6.57;2.67;;;20.60;71.60;;;;;;4915685;29;20393;-69
2023/03/31 12:10:02;;;;;;;5.20;2.13;;;20.80;71.10;;;;;;4916545;29;20044;-70
2023/03/31 12:12:32;;;;;;;9.85;2.75;;;20.80;71.30;;;;;;4956939;28;20074;-70
2023/03/31 12:15:30;;;;;;;3.92;2.38;;;20.90;70.90;;;;;;4971738;28;20062;-70
2023/03/31 12:18:15;;;;;;;8.88;2.92;;;20.90;72.00;;;;;;4972056;28;20065;-70
2023/03/31 12:20:56;;;;;;;8.40;2.40;;;21.00;71.50;;;;;;4974566;28;20031;-70
2023/03/31 12:23:27;;;;;;;5.22;2.30;;;21.00;70.30;;;;;;4974339;28;20019;-69
2023/03/31 12:25:58;;;;;;;6.97;2.72;;;20.90;70.90;;;;;;4974953;28;20031;-70
2023/03/31 12:28:26;;;;;;;7.03;2.67;;;20.80;71.90;;;;;;4975926;28;20031;-70
2023/03/31 12:30:54;;;;;;;9.93;2.90;;;20.90;72.40;;;;;;4969521;28;20038;-70
2023/03/31 12:33:25;;;;;;;4.28;2.00;;;20.90;69.90;;;;;;4970362;28;20121;-69
2023/03/31 12:35:51;;;;;;;5.47;2.40;;;21.00;70.90;;;;;;4965828;28;20103;-69
2023/03/31 12:38:35;;;;;;;6.80;2.58;;;21.10;69.30;;;;;;4962735;28;20036;-69
2023/03/31 12:41:11;;;;;;;4.90;2.30;;;21.20;69.50;;;;;;4964780;28;20143;-69
2023/03/31 12:44:04;;;;;;;7.00;2.33;;;21.30;71.00;;;;;;4968366;28;20039;-69
2023/03/31 12:46:50;;;;;;;4.60;2.15;;;21.20;68.90;;;;;;4967500;28;20114;-70
2023/03/31 12:49:28;;;;;;;7.40;1.98;;;21.40;69.60;;;;;;4967135;28;20029;-70
2023/03/31 12:52:06;;;;;;;5.95;1.85;;;21.30;71.20;;;;;;4967085;28;20122;-70
2023/03/31 12:54:57;;;;;;;9.60;2.85;;;21.40;71.20;;;;;;4968295;28;20023;-69
2023/03/31 12:57:24;;;;;;;4.18;1.73;;;21.10;69.50;;;;;;4969479;28;20023;-69
2023/03/31 13:00:17;;;;;;;2.88;1.90;;;21.10;70.30;;;;;;4975101;28;20015;-69
2023/03/31 13:02:45;;;;;;;5.57;2.00;;;21.10;67.90;;;;;;4973463;28;20035;-69
2023/03/31 13:05:36;;;;;;;5.75;2.20;;;21.00;71.00;;;;;;4965022;28;20497;-70
2023/03/31 13:08:07;;;;;;;7.97;2.30;;;21.00;68.70;;;;;;4969883;28;20482;-71
2023/03/31 13:10:56;;;;;;;3.80;2.05;;;20.80;69.50;;;;;;4974445;28;20035;-71
2023/03/31 13:13:23;;;;;;;6.68;2.00;;;21.00;70.10;;;;;;4974733;28;20038;-70